Time;durP1;ratioP1;P1;durP2;ratioP2;P2;SDS_P1;SDS_P2;PMS_P1;PMS_P2;Temp;Humidity;BMP_temperature;BMP_pressure;BME280_temperature;BME280_humidity;BME280_pressure;Samples;Min_cycle;Max_cycle;Signal;HPM_P1;HPM_P2
2020/12/25 00:01:19;;;;;;;0.80;0.80;;;6.10;99.90;;;;;;5093138;28;20172;-76
2020/12/25 00:03:44;;;;;;;0.45;0.45;;;6.10;99.90;;;;;;5092782;28;20371;-76
2020/12/25 00:06:10;;;;;;;0.68;0.68;;;6.00;99.90;;;;;;5092902;28;20223;-76
2020/12/25 00:08:35;;;;;;;0.10;0.10;;;6.20;99.90;;;;;;5092851;28;20165;-75
2020/12/25 00:11:01;;;;;;;0.10;0.10;;;6.30;99.90;;;;;;5094857;28;20176;-77
2020/12/25 00:13:26;;;;;;;0.20;0.20;;;6.30;99.90;;;;;;5095372;28;20213;-76
2020/12/25 00:15:52;;;;;;;0.10;0.10;;;6.30;99.90;;;;;;5096651;28;20181;-76
2020/12/25 00:18:17;;;;;;;0.10;0.10;;;6.30;99.90;;;;;;5096991;28;20640;-76
2020/12/25 00:20:43;;;;;;;0.38;0.38;;;6.30;99.90;;;;;;5096614;28;20173;-76
2020/12/25 00:23:08;;;;;;;0.40;0.40;;;6.40;99.90;;;;;;5096689;28;20215;-74
2020/12/25 00:25:34;;;;;;;0.40;0.40;;;6.40;99.90;;;;;;5096586;28;20178;-76
2020/12/25 00:27:59;;;;;;;0.20;0.20;;;6.60;99.90;;;;;;5096566;28;20162;-77
2020/12/25 00:30:25;;;;;;;0.77;0.77;;;6.50;99.90;;;;;;5096403;28;20292;-76
2020/12/25 00:32:50;;;;;;;0.10;0.10;;;6.30;99.90;;;;;;5096492;28;20244;-74
2020/12/25 00:35:16;;;;;;;0.43;0.43;;;6.20;99.90;;;;;;5100932;28;20182;-76
2020/12/25 00:37:42;;;;;;;0.20;0.20;;;6.10;99.90;;;;;;5107689;28;20170;-76
2020/12/25 00:40:07;;;;;;;0.30;0.30;;;6.00;99.90;;;;;;5118157;28;20189;-74
2020/12/25 00:42:33;;;;;;;0.35;0.35;;;6.20;99.90;;;;;;5100542;28;20173;-75
2020/12/25 00:44:58;;;;;;;0.10;0.10;;;6.10;99.90;;;;;;5096848;28;20178;-75
2020/12/25 00:47:24;;;;;;;3.42;0.73;;;6.10;99.90;;;;;;5095007;28;20210;-75
2020/12/25 00:49:49;;;;;;;0.10;0.10;;;6.00;99.90;;;;;;5096046;28;20199;-75
2020/12/25 00:52:15;;;;;;;0.82;0.82;;;6.00;99.90;;;;;;5095967;28;20228;-75
2020/12/25 00:54:40;;;;;;;0.10;0.10;;;6.10;99.90;;;;;;5096199;28;20192;-76
2020/12/25 00:57:06;;;;;;;0.10;0.10;;;6.00;99.90;;;;;;5096047;28;20162;-75
2020/12/25 00:59:31;;;;;;;0.20;0.20;;;6.10;99.90;;;;;;5094688;28;20170;-76
2020/12/25 01:01:57;;;;;;;0.20;0.20;;;6.20;99.90;;;;;;5095948;28;20153;-76
2020/12/25 01:04:22;;;;;;;0.10;0.10;;;6.10;99.90;;;;;;5095800;28;20189;-75
2020/12/25 01:06:48;;;;;;;0.10;0.10;;;6.10;99.90;;;;;;5094561;28;20165;-76
2020/12/25 01:09:14;;;;;;;4.82;0.73;;;6.00;99.90;;;;;;5095829;28;20194;-76
2020/12/25 01:11:40;;;;;;;0.20;0.20;;;6.00;99.90;;;;;;5095720;28;20524;-76
2020/12/25 01:14:06;;;;;;;0.10;0.10;;;5.80;99.90;;;;;;5095654;28;20204;-76
2020/12/25 01:16:32;;;;;;;0.20;0.20;;;5.90;99.90;;;;;;5095556;28;20165;-76
2020/12/25 01:18:57;;;;;;;0.10;0.10;;;5.90;99.90;;;;;;5096037;28;20248;-75
2020/12/25 01:21:23;;;;;;;0.10;0.10;;;5.90;99.90;;;;;;5093638;28;20529;-76
2020/12/25 01:23:48;;;;;;;0.85;0.85;;;5.80;99.90;;;;;;5093593;28;20524;-75
2020/12/25 01:26:14;;;;;;;0.20;0.20;;;5.80;99.90;;;;;;5095330;28;20261;-75
2020/12/25 01:28:40;;;;;;;0.20;0.20;;;5.80;99.90;;;;;;5095395;28;20158;-75
2020/12/25 01:31:06;;;;;;;0.20;0.20;;;6.00;99.90;;;;;;5094065;28;20197;-75
2020/12/25 01:33:35;;;;;;;1.55;0.80;;;5.90;99.90;;;;;;5095132;28;20198;-75
2020/12/25 01:36:03;;;;;;;0.10;0.10;;;5.90;99.90;;;;;;5095073;28;20181;-76
2020/12/25 01:38:28;;;;;;;0.15;0.15;;;6.00;99.90;;;;;;5095033;28;20159;-75
2020/12/25 01:40:54;;;;;;;0.20;0.20;;;6.10;99.90;;;;;;5095048;28;20166;-76
2020/12/25 01:43:20;;;;;;;1.77;1.30;;;6.10;99.90;;;;;;5094945;28;20177;-75
2020/12/25 01:45:45;;;;;;;1.67;1.08;;;6.00;99.90;;;;;;5094852;28;20547;-74
2020/12/25 01:48:11;;;;;;;0.38;0.38;;;6.10;99.90;;;;;;5094919;28;20218;-75
2020/12/25 01:50:37;;;;;;;0.40;0.40;;;6.10;99.90;;;;;;5094814;28;20184;-75
2020/12/25 01:53:05;;;;;;;0.13;0.13;;;6.00;99.90;;;;;;5093535;28;20596;-75
2020/12/25 01:55:32;;;;;;;0.10;0.10;;;5.80;99.90;;;;;;5093446;28;20781;-75
2020/12/25 01:58:00;;;;;;;0.20;0.20;;;5.80;99.90;;;;;;5094714;28;20158;-75
2020/12/25 02:00:27;;;;;;;1.08;1.02;;;5.70;99.90;;;;;;5094694;28;20165;-75
2020/12/25 02:02:52;;;;;;;0.30;0.30;;;5.70;99.90;;;;;;5094721;28;20162;-75
2020/12/25 02:05:18;;;;;;;0.20;0.20;;;6.00;99.90;;;;;;5094697;28;20235;-76
2020/12/25 02:07:44;;;;;;;0.10;0.10;;;6.00;99.90;;;;;;5094609;28;20169;-74
2020/12/25 02:10:12;;;;;;;0.43;0.43;;;5.90;99.90;;;;;;5094523;28;20162;-76
2020/12/25 02:12:38;;;;;;;0.38;0.38;;;5.90;99.90;;;;;;5094358;28;20272;-74
2020/12/25 02:15:06;;;;;;;0.20;0.20;;;5.90;99.90;;;;;;5093067;28;20186;-74
2020/12/25 02:17:31;;;;;;;0.20;0.20;;;5.90;99.90;;;;;;5094573;28;20272;-75
2020/12/25 02:19:57;;;;;;;0.20;0.20;;;5.70;99.90;;;;;;5094347;28;20236;-74
2020/12/25 02:22:23;;;;;;;0.20;0.20;;;5.60;99.90;;;;;;5094231;28;20165;-74
2020/12/25 02:24:48;;;;;;;0.20;0.20;;;5.70;99.90;;;;;;5092913;28;20186;-75
2020/12/25 02:27:14;;;;;;;0.40;0.40;;;5.60;99.90;;;;;;5094138;28;20223;-75
2020/12/25 02:29:39;;;;;;;1.00;0.95;;;5.50;99.90;;;;;;5094111;28;20162;-74
2020/12/25 02:32:05;;;;;;;0.10;0.10;;;5.50;99.90;;;;;;5093976;28;20247;-75
2020/12/25 02:34:30;;;;;;;0.15;0.15;;;5.60;99.90;;;;;;5093817;28;20247;-75
2020/12/25 02:36:56;;;;;;;0.70;0.70;;;5.40;99.90;;;;;;5093973;28;20244;-75
2020/12/25 02:39:21;;;;;;;0.20;0.20;;;5.50;99.90;;;;;;5093864;28;20173;-75
2020/12/25 02:41:47;;;;;;;0.30;0.30;;;5.50;99.90;;;;;;5093982;28;20162;-75
2020/12/25 02:44:12;;;;;;;0.13;0.13;;;5.40;99.90;;;;;;5093768;28;20189;-75
2020/12/25 02:46:38;;;;;;;0.10;0.10;;;5.50;99.90;;;;;;5093735;28;20184;-74
2020/12/25 02:49:04;;;;;;;0.20;0.20;;;5.50;99.90;;;;;;5093582;28;20217;-75
2020/12/25 02:51:29;;;;;;;0.20;0.20;;;5.50;99.90;;;;;;5093750;28;20154;-75
2020/12/25 02:53:55;;;;;;;0.10;0.10;;;5.50;99.90;;;;;;5092177;28;20217;-75
2020/12/25 02:56:20;;;;;;;0.30;0.30;;;5.40;99.90;;;;;;5093676;28;20154;-75
2020/12/25 02:58:46;;;;;;;0.40;0.40;;;5.40;99.90;;;;;;5093519;28;20237;-75
2020/12/25 03:01:13;;;;;;;0.10;0.10;;;5.30;99.90;;;;;;5093775;28;20196;-75
2020/12/25 03:03:39;;;;;;;0.20;0.20;;;5.20;99.90;;;;;;5093487;28;20166;-74
2020/12/25 03:06:05;;;;;;;0.50;0.50;;;5.20;99.90;;;;;;5094316;28;20170;-74
2020/12/25 03:08:32;;;;;;;0.20;0.20;;;5.30;99.90;;;;;;5094561;28;20287;-74
2020/12/25 03:10:58;;;;;;;0.80;0.80;;;5.40;99.90;;;;;;5094919;28;20169;-74
2020/12/25 03:13:23;;;;;;;0.20;0.20;;;5.40;99.90;;;;;;5095341;28;20198;-75
2020/12/25 03:15:49;;;;;;;0.10;0.10;;;5.50;99.90;;;;;;5093710;28;20208;-76
2020/12/25 03:18:14;;;;;;;0.20;0.20;;;5.50;99.90;;;;;;5093801;28;20643;-75
2020/12/25 03:20:40;;;;;;;0.20;0.20;;;5.30;99.90;;;;;;5093557;28;20166;-75
2020/12/25 03:23:06;;;;;;;0.20;0.20;;;5.30;99.90;;;;;;5093269;28;20188;-76
2020/12/25 03:25:31;;;;;;;0.20;0.20;;;5.20;99.90;;;;;;5093174;28;20178;-73
2020/12/25 03:27:57;;;;;;;0.20;0.20;;;5.30;99.90;;;;;;5093386;28;20505;-74
2020/12/25 03:30:22;;;;;;;1.27;0.60;;;5.30;99.90;;;;;;5093221;28;20222;-76
2020/12/25 03:32:48;;;;;;;0.20;0.20;;;5.50;99.90;;;;;;5093212;28;20215;-75
2020/12/25 03:35:13;;;;;;;0.30;0.30;;;5.60;99.90;;;;;;5093183;28;20284;-75
2020/12/25 03:37:39;;;;;;;0.20;0.20;;;5.50;99.90;;;;;;5093192;28;20162;-75
2020/12/25 03:40:05;;;;;;;0.20;0.20;;;5.60;99.90;;;;;;5093269;28;20173;-76
2020/12/25 03:42:30;;;;;;;0.35;0.35;;;5.50;99.90;;;;;;5093143;28;20176;-76
2020/12/25 03:44:56;;;;;;;4.45;0.95;;;5.50;99.90;;;;;;5093510;28;20269;-75
2020/12/25 03:47:24;;;;;;;0.30;0.30;;;5.40;99.90;;;;;;5097171;28;20286;-75
2020/12/25 03:49:50;;;;;;;0.20;0.20;;;5.50;99.90;;;;;;5097182;28;20227;-75
2020/12/25 03:52:15;;;;;;;0.20;0.20;;;5.50;99.90;;;;;;5097105;28;20269;-75
2020/12/25 03:54:41;;;;;;;0.10;0.10;;;5.50;99.90;;;;;;5097154;28;20197;-75
2020/12/25 03:57:06;;;;;;;0.20;0.20;;;5.40;99.90;;;;;;5097094;28;20205;-75
2020/12/25 03:59:32;;;;;;;0.20;0.20;;;5.40;99.90;;;;;;5097018;28;20181;-75
2020/12/25 04:01:57;;;;;;;0.22;0.22;;;5.40;99.90;;;;;;5096974;28;20629;-75
2020/12/25 04:04:23;;;;;;;0.20;0.20;;;5.50;99.90;;;;;;5096907;28;20178;-74
2020/12/25 04:06:48;;;;;;;0.20;0.20;;;5.50;99.90;;;;;;5095490;28;20173;-75
2020/12/25 04:09:14;;;;;;;0.10;0.10;;;5.60;99.90;;;;;;5096900;28;20166;-74
2020/12/25 04:11:39;;;;;;;0.10;0.10;;;5.50;99.90;;;;;;5096814;28;20234;-74
2020/12/25 04:14:05;;;;;;;0.20;0.20;;;5.60;99.90;;;;;;5097183;28;20192;-74
2020/12/25 04:16:31;;;;;;;0.35;0.35;;;5.60;99.90;;;;;;5096798;28;20597;-74
2020/12/25 04:18:56;;;;;;;0.40;0.40;;;5.50;99.90;;;;;;5097144;28;20505;-75
2020/12/25 04:21:22;;;;;;;0.25;0.25;;;5.50;99.90;;;;;;5096723;28;20231;-74
2020/12/25 04:23:47;;;;;;;0.35;0.35;;;5.50;99.90;;;;;;5096410;28;20162;-74
2020/12/25 04:26:13;;;;;;;0.40;0.40;;;5.60;99.90;;;;;;5096451;28;20201;-74
2020/12/25 04:28:38;;;;;;;0.20;0.20;;;5.50;99.90;;;;;;5096563;28;20158;-74
2020/12/25 04:31:04;;;;;;;0.73;0.73;;;5.50;99.90;;;;;;5096443;28;20166;-74
2020/12/25 04:33:31;;;;;;;0.10;0.10;;;5.50;99.90;;;;;;5096226;28;20213;-74
2020/12/25 04:35:57;;;;;;;0.20;0.20;;;5.50;99.90;;;;;;5096363;28;20672;-75
2020/12/25 04:38:22;;;;;;;0.20;0.20;;;5.50;99.90;;;;;;5095028;28;20267;-75
2020/12/25 04:40:48;;;;;;;0.20;0.20;;;5.40;99.90;;;;;;5096316;28;20523;-76
2020/12/25 04:43:15;;;;;;;0.35;0.35;;;5.30;99.90;;;;;;5096321;28;20170;-75
2020/12/25 04:45:40;;;;;;;0.40;0.40;;;5.20;99.90;;;;;;5094809;28;20186;-74
2020/12/25 04:48:06;;;;;;;0.50;0.50;;;5.20;99.90;;;;;;5095921;28;20258;-75
2020/12/25 04:50:32;;;;;;;0.15;0.15;;;5.30;99.90;;;;;;5096093;28;20179;-75
2020/12/25 04:52:59;;;;;;;0.20;0.20;;;5.40;99.90;;;;;;5095949;28;20198;-76
2020/12/25 04:55:24;;;;;;;1.20;1.10;;;5.30;99.90;;;;;;5095923;28;20188;-74
2020/12/25 04:57:51;;;;;;;0.10;0.10;;;5.30;99.90;;;;;;5094511;28;20174;-75
2020/12/25 05:00:21;;;;;;;0.30;0.30;;;5.40;99.90;;;;;;5095799;28;20616;-75
2020/12/25 05:02:48;;;;;;;0.73;0.73;;;5.40;99.90;;;;;;5095695;28;20620;-75
2020/12/25 05:05:15;;;;;;;0.20;0.20;;;5.40;99.90;;;;;;5095807;28;20193;-75
2020/12/25 05:07:41;;;;;;;0.17;0.17;;;5.10;99.90;;;;;;5095769;28;20198;-75
2020/12/25 05:10:07;;;;;;;0.20;0.20;;;5.20;99.90;;;;;;5095644;28;20197;-75
2020/12/25 05:12:34;;;;;;;0.30;0.30;;;5.30;99.90;;;;;;5095591;28;20203;-74
2020/12/25 05:15:04;;;;;;;0.15;0.15;;;5.10;99.90;;;;;;5095523;28;20269;-74
2020/12/25 05:17:31;;;;;;;0.20;0.20;;;5.00;99.90;;;;;;5095656;28;20550;-78
2020/12/25 05:19:57;;;;;;;0.47;0.47;;;5.00;99.90;;;;;;5095519;28;20166;-75
2020/12/25 05:22:23;;;;;;;0.35;0.35;;;5.00;99.90;;;;;;5095432;28;20235;-76
2020/12/25 05:24:48;;;;;;;12.35;0.80;;;5.10;99.90;;;;;;5095374;28;20182;-75
2020/12/25 05:27:14;;;;;;;0.10;0.10;;;5.00;99.90;;;;;;5095305;28;20166;-74
2020/12/25 05:29:40;;;;;;;0.28;0.28;;;5.00;99.90;;;;;;5095357;28;20184;-75
2020/12/25 05:32:07;;;;;;;0.35;0.35;;;5.00;99.90;;;;;;5095366;28;20194;-74
2020/12/25 05:34:34;;;;;;;0.20;0.20;;;5.10;99.90;;;;;;5095100;28;20197;-75
2020/12/25 05:37:01;;;;;;;0.30;0.30;;;5.00;99.90;;;;;;5095236;28;20165;-75
2020/12/25 05:39:30;;;;;;;0.25;0.25;;;5.10;99.90;;;;;;5095001;28;20177;-75
2020/12/25 05:41:58;;;;;;;0.10;0.10;;;5.00;99.90;;;;;;5107487;28;20158;-74
2020/12/25 05:44:29;;;;;;;0.43;0.32;;;5.00;99.90;;;;;;5110783;28;20202;-75
2020/12/25 05:47:07;;;;;;;0.28;0.28;;;5.10;99.90;;;;;;5104794;28;20625;-75
2020/12/25 05:49:32;;;;;;;0.22;0.22;;;5.10;99.90;;;;;;5096157;28;20269;-75
2020/12/25 05:51:58;;;;;;;0.20;0.20;;;5.20;99.90;;;;;;5095415;28;20186;-75
2020/12/25 05:54:25;;;;;;;5.57;0.98;;;5.30;99.90;;;;;;5095034;28;20645;-76
2020/12/25 05:56:53;;;;;;;0.30;0.30;;;5.30;99.90;;;;;;5094822;28;20162;-74
2020/12/25 05:59:25;;;;;;;0.20;0.20;;;5.20;99.90;;;;;;5094824;28;20162;-75
2020/12/25 06:01:59;;;;;;;0.20;0.20;;;5.10;99.90;;;;;;5094945;28;20176;-75
2020/12/25 06:04:26;;;;;;;0.20;0.20;;;5.00;99.90;;;;;;5094484;28;20190;-75
2020/12/25 06:06:53;;;;;;;0.15;0.15;;;5.10;99.90;;;;;;5094663;28;20166;-75
2020/12/25 06:09:21;;;;;;;0.20;0.20;;;5.20;99.90;;;;;;5094124;28;20163;-76
2020/12/25 06:11:51;;;;;;;0.30;0.30;;;5.10;99.90;;;;;;5094422;28;20621;-75
2020/12/25 06:14:19;;;;;;;0.20;0.20;;;5.10;99.90;;;;;;5094300;28;20243;-75
2020/12/25 06:17:17;;;;;;;0.40;0.40;;;5.10;99.90;;;;;;5094227;28;20200;-75
2020/12/25 06:19:58;;;;;;;0.50;0.50;;;5.20;99.90;;;;;;5094316;28;20176;-76
2020/12/25 06:22:30;;;;;;;0.35;0.35;;;5.10;99.90;;;;;;5094369;28;20641;-76
2020/12/25 06:24:58;;;;;;;0.20;0.20;;;5.10;99.90;;;;;;5094294;28;20224;-76
2020/12/25 06:27:27;;;;;;;0.10;0.10;;;5.20;99.90;;;;;;5094230;28;20579;-76
2020/12/25 06:29:54;;;;;;;0.20;0.20;;;5.30;99.90;;;;;;5094184;28;20506;-75
2020/12/25 06:32:23;;;;;;;0.22;0.22;;;5.50;99.90;;;;;;5093989;28;20181;-76
2020/12/25 06:34:50;;;;;;;0.20;0.20;;;5.50;99.90;;;;;;5092766;28;20276;-75
2020/12/25 06:37:17;;;;;;;0.10;0.10;;;5.40;99.90;;;;;;5093996;28;20173;-75
2020/12/25 06:39:53;;;;;;;0.10;0.10;;;5.30;99.90;;;;;;5094008;28;20723;-74
2020/12/25 06:42:28;;;;;;;0.30;0.30;;;5.40;99.90;;;;;;5093926;28;20161;-75
2020/12/25 06:44:57;;;;;;;0.20;0.20;;;5.60;99.90;;;;;;5093908;28;20705;-76
2020/12/25 06:47:36;;;;;;;0.20;0.20;;;5.60;99.90;;;;;;5093682;28;20300;-75
2020/12/25 06:50:13;;;;;;;0.40;0.40;;;5.50;99.90;;;;;;5093936;28;20507;-75
2020/12/25 06:52:52;;;;;;;2.17;1.05;;;5.50;99.90;;;;;;5093689;28;20197;-74
2020/12/25 06:55:23;;;;;;;0.60;0.47;;;5.30;99.90;;;;;;5093635;28;20221;-76
2020/12/25 06:57:55;;;;;;;0.47;0.47;;;5.40;99.90;;;;;;5093582;28;20166;-76
2020/12/25 07:00:22;;;;;;;0.20;0.20;;;5.50;99.90;;;;;;5093661;28;20531;-76
2020/12/25 07:02:48;;;;;;;0.10;0.10;;;5.40;99.90;;;;;;5093532;28;20161;-75
2020/12/25 07:05:14;;;;;;;0.10;0.10;;;5.40;99.90;;;;;;5093543;28;20258;-75
2020/12/25 07:07:39;;;;;;;0.30;0.30;;;5.60;99.90;;;;;;5093533;28;20162;-75
2020/12/25 07:10:10;;;;;;;0.77;0.77;;;5.70;99.90;;;;;;5093467;28;20664;-75
2020/12/25 07:12:36;;;;;;;0.10;0.10;;;5.70;99.90;;;;;;5093404;28;20200;-75
2020/12/25 07:15:04;;;;;;;0.10;0.10;;;5.70;99.90;;;;;;5093228;28;20201;-76
2020/12/25 07:17:29;;;;;;;0.10;0.10;;;5.70;99.90;;;;;;5093628;28;20295;-76
2020/12/25 07:19:55;;;;;;;0.10;0.10;;;5.70;99.90;;;;;;5092583;28;20256;-76
2020/12/25 07:22:21;;;;;;;0.20;0.20;;;5.90;99.90;;;;;;5093051;28;20162;-75
2020/12/25 07:24:47;;;;;;;0.47;0.47;;;5.90;99.90;;;;;;5093149;28;20282;-81
2020/12/25 07:27:16;;;;;;;0.10;0.10;;;5.80;99.90;;;;;;5091895;28;20649;-82
2020/12/25 07:29:44;;;;;;;0.10;0.10;;;5.90;99.90;;;;;;5092198;28;20165;-76
2020/12/25 07:32:12;;;;;;;0.28;0.28;;;5.80;99.90;;;;;;5093181;28;20648;-82
2020/12/25 07:34:38;;;;;;;0.15;0.15;;;5.80;99.90;;;;;;5091815;28;20544;-77
2020/12/25 07:37:04;;;;;;;0.32;0.32;;;5.90;99.90;;;;;;5093299;28;20285;-77
2020/12/25 07:39:30;;;;;;;0.15;0.15;;;5.60;99.90;;;;;;5093315;28;20166;-75
2020/12/25 07:41:57;;;;;;;0.30;0.30;;;5.50;99.90;;;;;;5093313;28;20158;-77
2020/12/25 07:44:23;;;;;;;0.10;0.10;;;5.50;99.90;;;;;;5093206;28;20217;-76
2020/12/25 07:46:50;;;;;;;0.10;0.10;;;5.40;99.90;;;;;;5091714;28;20219;-77
2020/12/25 07:49:15;;;;;;;0.82;0.82;;;5.50;99.90;;;;;;5092975;28;20309;-76
2020/12/25 07:51:41;;;;;;;0.10;0.10;;;5.60;99.90;;;;;;5093425;28;20182;-77
2020/12/25 07:54:08;;;;;;;0.20;0.20;;;5.60;99.90;;;;;;5092817;28;20209;-76
2020/12/25 07:56:35;;;;;;;0.68;0.63;;;5.70;99.90;;;;;;5093139;28;20219;-76
2020/12/25 07:59:03;;;;;;;0.10;0.10;;;5.80;99.90;;;;;;5093020;28;20158;-75
2020/12/25 08:01:31;;;;;;;0.20;0.20;;;5.80;99.90;;;;;;5092985;28;20174;-76
2020/12/25 08:03:58;;;;;;;0.10;0.10;;;5.90;99.90;;;;;;5092809;28;20177;-76
2020/12/25 08:06:26;;;;;;;0.10;0.10;;;5.90;99.90;;;;;;5093010;28;20158;-77
2020/12/25 08:09:02;;;;;;;2.45;0.85;;;5.90;99.90;;;;;;5093003;28;20189;-75
2020/12/25 08:11:27;;;;;;;0.20;0.20;;;5.80;99.90;;;;;;5092948;28;20154;-76
2020/12/25 08:14:02;;;;;;;0.10;0.10;;;5.80;99.90;;;;;;5094641;28;20217;-76
2020/12/25 08:16:30;;;;;;;0.20;0.20;;;5.90;99.90;;;;;;5096603;28;20235;-77
2020/12/25 08:18:56;;;;;;;0.10;0.10;;;5.80;99.90;;;;;;5096956;28;20166;-76
2020/12/25 08:21:28;;;;;;;0.10;0.10;;;5.80;99.90;;;;;;5092968;28;20169;-75
2020/12/25 08:23:54;;;;;;;0.10;0.10;;;5.80;99.90;;;;;;5092573;28;20518;-76
2020/12/25 08:26:29;;;;;;;0.43;0.43;;;5.90;99.90;;;;;;5091236;28;20166;-75
2020/12/25 08:28:55;;;;;;;0.85;0.85;;;5.90;99.90;;;;;;5092557;28;20180;-76
2020/12/25 08:31:20;;;;;;;0.15;0.15;;;6.00;99.90;;;;;;5093537;28;20497;-76
2020/12/25 08:33:56;;;;;;;0.10;0.10;;;6.10;99.90;;;;;;5096357;28;20288;-75
2020/12/25 08:36:25;;;;;;;0.55;0.55;;;6.10;99.90;;;;;;5096507;28;20219;-76
2020/12/25 08:38:50;;;;;;;0.20;0.20;;;6.10;99.90;;;;;;5096391;28;20165;-75
2020/12/25 08:41:16;;;;;;;0.10;0.10;;;6.10;99.90;;;;;;5096234;28;20166;-76
2020/12/25 08:43:42;;;;;;;1.13;0.40;;;6.10;99.90;;;;;;5096157;28;20197;-76
2020/12/25 08:46:08;;;;;;;0.50;0.50;;;6.20;99.90;;;;;;5093726;28;20506;-76
2020/12/25 08:48:47;;;;;;;0.93;0.90;;;6.20;99.90;;;;;;5095870;28;20225;-77
2020/12/25 08:51:15;;;;;;;0.20;0.20;;;6.20;99.90;;;;;;5096172;28;20252;-78
2020/12/25 08:53:55;;;;;;;0.63;0.63;;;6.30;99.90;;;;;;5077817;28;20258;-78
2020/12/25 08:56:23;;;;;;;0.20;0.20;;;6.30;99.90;;;;;;5096188;28;20162;-78
2020/12/25 08:59:05;;;;;;;0.10;0.10;;;6.20;99.90;;;;;;5096107;28;20154;-80
2020/12/25 09:01:32;;;;;;;0.10;0.10;;;6.10;99.90;;;;;;5096544;28;20150;-79
2020/12/25 09:04:01;;;;;;;0.10;0.10;;;6.10;99.90;;;;;;5095941;28;20189;-76
2020/12/25 09:06:27;;;;;;;0.20;0.20;;;6.20;99.90;;;;;;5095542;28;20291;-76
2020/12/25 09:08:53;;;;;;;0.20;0.20;;;6.20;99.90;;;;;;5096002;28;20154;-76
2020/12/25 09:11:22;;;;;;;0.17;0.17;;;6.10;99.90;;;;;;5095600;28;20173;-76
2020/12/25 09:13:48;;;;;;;0.10;0.10;;;6.10;99.90;;;;;;5095447;28;20534;-76
2020/12/25 09:16:14;;;;;;;1.13;0.45;;;6.30;99.90;;;;;;5077458;28;20629;-77
2020/12/25 09:18:41;;;;;;;0.20;0.20;;;6.30;99.90;;;;;;5077763;28;20504;-77
2020/12/25 09:21:08;;;;;;;0.20;0.20;;;6.30;99.90;;;;;;5095349;28;20165;-76
2020/12/25 09:23:34;;;;;;;0.30;0.30;;;6.10;99.90;;;;;;5095447;28;20169;-75
2020/12/25 09:25:59;;;;;;;0.13;0.13;;;6.10;99.90;;;;;;5077123;28;20288;-76
2020/12/25 09:28:26;;;;;;;0.28;0.28;;;6.10;99.90;;;;;;5095523;28;20158;-75
2020/12/25 09:30:52;;;;;;;0.55;0.55;;;5.90;99.90;;;;;;5095487;28;20162;-75
2020/12/25 09:33:19;;;;;;;0.10;0.10;;;6.00;99.90;;;;;;5095110;28;20292;-76
2020/12/25 09:35:45;;;;;;;0.20;0.20;;;6.10;99.90;;;;;;5094826;28;20203;-77
2020/12/25 09:38:10;;;;;;;0.20;0.20;;;6.20;99.90;;;;;;5077086;28;20696;-75
2020/12/25 09:40:36;;;;;;;0.40;0.40;;;6.40;99.90;;;;;;5094900;28;20253;-76
2020/12/25 09:43:01;;;;;;;0.20;0.20;;;6.50;99.90;;;;;;5094097;28;20193;-76
2020/12/25 09:45:27;;;;;;;0.17;0.17;;;6.40;99.90;;;;;;5076807;28;20280;-76
2020/12/25 09:47:53;;;;;;;0.10;0.10;;;6.30;99.90;;;;;;5094701;28;20259;-77
2020/12/25 09:50:18;;;;;;;1.30;1.05;;;6.20;99.90;;;;;;5094849;28;20212;-75
2020/12/25 09:52:44;;;;;;;0.28;0.28;;;6.30;99.90;;;;;;5094594;28;20200;-75
2020/12/25 09:55:09;;;;;;;0.63;0.63;;;6.40;99.90;;;;;;5094614;28;20193;-79
2020/12/25 09:57:35;;;;;;;0.13;0.13;;;6.10;99.90;;;;;;5095129;28;20166;-83
2020/12/25 10:00:12;;;;;;;2.45;1.30;;;6.00;99.90;;;;;;5076318;28;20304;-77
2020/12/25 10:02:38;;;;;;;1.08;0.25;;;6.10;99.90;;;;;;5094388;28;20230;-76
2020/12/25 10:05:05;;;;;;;0.88;0.75;;;6.00;99.90;;;;;;5094617;28;20186;-76
2020/12/25 10:07:30;;;;;;;0.20;0.20;;;6.10;99.90;;;;;;5094472;28;20176;-77
2020/12/25 10:09:56;;;;;;;1.25;0.95;;;6.10;99.90;;;;;;5094158;28;20158;-77
2020/12/25 10:12:22;;;;;;;0.65;0.65;;;6.20;99.90;;;;;;5094155;28;20229;-77
2020/12/25 10:14:47;;;;;;;4.57;2.05;;;6.40;99.90;;;;;;5094240;28;20188;-76
2020/12/25 10:17:13;;;;;;;4.78;1.92;;;6.40;99.90;;;;;;5094291;28;20241;-76
2020/12/25 10:19:38;;;;;;;0.20;0.20;;;6.40;99.90;;;;;;5094036;28;20170;-77
2020/12/25 10:22:04;;;;;;;0.30;0.30;;;6.40;99.90;;;;;;5094471;28;20181;-77
2020/12/25 10:24:29;;;;;;;1.33;0.60;;;6.70;99.90;;;;;;5084109;28;20194;-77
2020/12/25 10:26:55;;;;;;;0.20;0.20;;;6.90;99.90;;;;;;5090892;28;20374;-77
2020/12/25 10:29:20;;;;;;;0.43;0.35;;;7.00;99.90;;;;;;5092630;28;20192;-77
2020/12/25 10:31:48;;;;;;;0.50;0.50;;;7.10;99.90;;;;;;5092642;28;20166;-78
2020/12/25 10:34:14;;;;;;;0.15;0.15;;;7.00;99.90;;;;;;5092572;28;20205;-76
2020/12/25 10:36:40;;;;;;;0.98;0.88;;;7.10;99.90;;;;;;5092802;28;20573;-76
2020/12/25 10:39:05;;;;;;;0.65;0.65;;;7.10;99.90;;;;;;5092309;28;20195;-78
2020/12/25 10:41:32;;;;;;;0.43;0.43;;;7.00;99.90;;;;;;5092755;28;20154;-79
2020/12/25 10:43:58;;;;;;;0.82;0.82;;;7.10;99.90;;;;;;5094984;28;20211;-76
2020/12/25 10:46:25;;;;;;;0.20;0.20;;;7.00;99.90;;;;;;5095707;28;20174;-75
2020/12/25 10:48:50;;;;;;;0.10;0.10;;;6.90;99.90;;;;;;5088393;28;20280;-76
2020/12/25 10:51:16;;;;;;;0.85;0.85;;;6.80;99.90;;;;;;5085171;28;20171;-77
2020/12/25 10:53:42;;;;;;;0.10;0.10;;;6.90;99.90;;;;;;5082013;28;20207;-78
2020/12/25 10:56:08;;;;;;;0.50;0.35;;;6.90;99.90;;;;;;5087909;28;20170;-79
2020/12/25 10:58:34;;;;;;;0.10;0.10;;;7.00;99.90;;;;;;5076402;28;20220;-77
2020/12/25 11:01:00;;;;;;;0.77;0.77;;;6.80;99.90;;;;;;5074025;28;20633;-78
2020/12/25 11:03:25;;;;;;;0.20;0.20;;;6.70;99.90;;;;;;5072847;28;20159;-76
2020/12/25 11:05:51;;;;;;;0.60;0.60;;;6.70;99.90;;;;;;5072574;28;20653;-78
2020/12/25 11:08:16;;;;;;;0.17;0.17;;;6.60;99.90;;;;;;5072876;28;20166;-77
2020/12/25 11:10:45;;;;;;;0.20;0.20;;;6.80;99.90;;;;;;5072477;28;20167;-76
2020/12/25 11:13:11;;;;;;;1.23;0.73;;;6.80;99.90;;;;;;5072605;28;20220;-76
2020/12/25 11:15:42;;;;;;;0.10;0.10;;;6.80;99.90;;;;;;5072415;28;20190;-77
2020/12/25 11:18:08;;;;;;;0.13;0.13;;;6.80;99.90;;;;;;5072884;28;20174;-77
2020/12/25 11:20:33;;;;;;;0.32;0.32;;;6.80;99.90;;;;;;5054749;28;20653;-76
2020/12/25 11:23:00;;;;;;;0.35;0.35;;;6.90;99.90;;;;;;5071937;28;20663;-77
2020/12/25 11:25:25;;;;;;;0.10;0.10;;;7.00;99.90;;;;;;5091224;28;20190;-76
2020/12/25 11:27:51;;;;;;;0.20;0.20;;;7.00;99.90;;;;;;5075025;28;20234;-77
2020/12/25 11:30:16;;;;;;;0.20;0.20;;;7.00;99.90;;;;;;5092275;28;20158;-76
2020/12/25 11:32:42;;;;;;;0.85;0.85;;;6.90;99.90;;;;;;5092130;28;20207;-77
2020/12/25 11:35:07;;;;;;;0.20;0.20;;;6.90;99.90;;;;;;5093161;28;20189;-76
2020/12/25 11:37:33;;;;;;;0.20;0.20;;;7.00;99.90;;;;;;5092616;28;20176;-76
2020/12/25 11:39:59;;;;;;;0.10;0.10;;;7.00;99.90;;;;;;5092579;28;20207;-77
2020/12/25 11:42:24;;;;;;;0.10;0.10;;;7.10;99.90;;;;;;5092120;28;20158;-77
2020/12/25 11:44:50;;;;;;;0.40;0.40;;;7.30;99.90;;;;;;5092410;28;20181;-75
2020/12/25 11:47:15;;;;;;;0.20;0.20;;;7.40;99.90;;;;;;5092483;28;20216;-75
2020/12/25 11:49:41;;;;;;;0.68;0.68;;;7.40;99.90;;;;;;5092493;28;20184;-77
2020/12/25 11:52:06;;;;;;;0.20;0.20;;;7.10;99.90;;;;;;5093314;28;20558;-77
2020/12/25 11:54:32;;;;;;;0.20;0.20;;;7.10;99.90;;;;;;5092473;28;20712;-76
2020/12/25 11:56:57;;;;;;;0.63;0.63;;;7.10;99.90;;;;;;5092463;28;20166;-75
2020/12/25 11:59:23;;;;;;;0.20;0.20;;;7.10;99.90;;;;;;5092159;28;20287;-75
2020/12/25 12:01:48;;;;;;;0.20;0.20;;;7.10;99.90;;;;;;5092292;28;20621;-75
2020/12/25 12:04:14;;;;;;;0.17;0.17;;;7.10;99.90;;;;;;5092179;28;20187;-76
2020/12/25 12:06:41;;;;;;;0.30;0.30;;;7.20;99.90;;;;;;5093797;28;20601;-75
2020/12/25 12:09:06;;;;;;;0.30;0.30;;;7.20;99.90;;;;;;5096021;28;20221;-75
2020/12/25 12:11:32;;;;;;;0.10;0.10;;;7.20;99.90;;;;;;5096390;28;20180;-74
2020/12/25 12:13:58;;;;;;;0.10;0.10;;;7.20;99.90;;;;;;5095783;28;20640;-77
2020/12/25 12:16:24;;;;;;;0.30;0.30;;;7.20;99.90;;;;;;5096392;28;20170;-77
2020/12/25 12:18:51;;;;;;;2.45;1.48;;;7.20;99.90;;;;;;5096220;28;20614;-74
2020/12/25 12:21:17;;;;;;;0.40;0.40;;;7.20;99.90;;;;;;5095029;28;20640;-75
2020/12/25 12:23:44;;;;;;;1.02;0.77;;;7.20;99.90;;;;;;5093213;28;20253;-75
2020/12/25 12:26:10;;;;;;;0.10;0.10;;;7.10;99.90;;;;;;5092713;28;20512;-75
2020/12/25 12:28:36;;;;;;;0.25;0.25;;;7.10;99.90;;;;;;5093681;28;20578;-77
2020/12/25 12:31:02;;;;;;;0.20;0.20;;;7.10;99.90;;;;;;5093371;28;20710;-77
2020/12/25 12:33:28;;;;;;;0.10;0.10;;;7.10;99.90;;;;;;5095546;28;20255;-75
2020/12/25 12:35:53;;;;;;;0.50;0.17;;;7.20;99.90;;;;;;5095324;28;20182;-75
2020/12/25 12:38:19;;;;;;;0.10;0.10;;;7.10;99.90;;;;;;5095948;28;20154;-76
2020/12/25 12:40:45;;;;;;;0.57;0.50;;;7.10;99.90;;;;;;5095648;28;20235;-77
2020/12/25 12:43:10;;;;;;;25.98;1.70;;;7.10;99.90;;;;;;5077266;28;20181;-77
2020/12/25 12:45:36;;;;;;;9.32;2.30;;;7.10;99.90;;;;;;5077445;28;20197;-75
2020/12/25 12:48:01;;;;;;;0.30;0.30;;;7.10;99.90;;;;;;5095533;28;20217;-77
2020/12/25 12:50:27;;;;;;;0.20;0.20;;;7.10;99.90;;;;;;5095284;28;20252;-76
2020/12/25 12:52:52;;;;;;;0.20;0.20;;;7.00;99.90;;;;;;5095026;28;20254;-77
2020/12/25 12:55:18;;;;;;;0.17;0.17;;;7.10;99.90;;;;;;5095439;28;20200;-76